sensor_id;sensor_type;location;lat;lon;timestamp;P1;durP1;ratioP1;P2;durP2;ratioP2
37231;SDS011;23125;48.156;15.954;2023-02-28T00:00:26;9.93;;;5.60;;
37231;SDS011;23125;48.156;15.954;2023-02-28T00:02:52;9.02;;;5.93;;
37231;SDS011;23125;48.156;15.954;2023-02-28T00:05:19;10.65;;;6.07;;
37231;SDS011;23125;48.156;15.954;2023-02-28T00:07:48;9.57;;;5.57;;
37231;SDS011;23125;48.156;15.954;2023-02-28T00:12:51;9.40;;;6.00;;
37231;SDS011;23125;48.156;15.954;2023-02-28T00:17:43;9.32;;;5.80;;
37231;SDS011;23125;48.156;15.954;2023-02-28T00:20:10;10.93;;;6.25;;
37231;SDS011;23125;48.156;15.954;2023-02-28T00:22:38;10.48;;;5.72;;
37231;SDS011;23125;48.156;15.954;2023-02-28T00:25:06;12.63;;;7.30;;
37231;SDS011;23125;48.156;15.954;2023-02-28T00:27:34;11.27;;;6.38;;
37231;SDS011;23125;48.156;15.954;2023-02-28T00:30:01;11.75;;;6.35;;
37231;SDS011;23125;48.156;15.954;2023-02-28T00:32:27;13.07;;;6.93;;
37231;SDS011;23125;48.156;15.954;2023-02-28T00:34:53;10.90;;;6.97;;
37231;SDS011;23125;48.156;15.954;2023-02-28T00:37:18;12.57;;;6.90;;
37231;SDS011;23125;48.156;15.954;2023-02-28T00:39:44;13.25;;;7.55;;
37231;SDS011;23125;48.156;15.954;2023-02-28T00:42:10;13.02;;;6.93;;
37231;SDS011;23125;48.156;15.954;2023-02-28T00:44:36;12.65;;;7.22;;
37231;SDS011;23125;48.156;15.954;2023-02-28T00:47:02;10.85;;;6.97;;
37231;SDS011;23125;48.156;15.954;2023-02-28T00:49:28;14.40;;;6.88;;
37231;SDS011;23125;48.156;15.954;2023-02-28T00:51:54;10.48;;;6.85;;
37231;SDS011;23125;48.156;15.954;2023-02-28T00:54:21;12.35;;;6.18;;
37231;SDS011;23125;48.156;15.954;2023-02-28T00:56:49;12.82;;;7.40;;
37231;SDS011;23125;48.156;15.954;2023-02-28T00:59:15;13.45;;;6.72;;
37231;SDS011;23125;48.156;15.954;2023-02-28T01:01:43;10.88;;;5.97;;
37231;SDS011;23125;48.156;15.954;2023-02-28T01:04:10;12.02;;;6.47;;
37231;SDS011;23125;48.156;15.954;2023-02-28T01:06:36;9.68;;;6.28;;
37231;SDS011;23125;48.156;15.954;2023-02-28T01:09:03;14.30;;;6.40;;
37231;SDS011;23125;48.156;15.954;2023-02-28T01:11:31;12.63;;;6.20;;
37231;SDS011;23125;48.156;15.954;2023-02-28T01:13:57;10.63;;;5.85;;
37231;SDS011;23125;48.156;15.954;2023-02-28T01:16:24;11.95;;;7.20;;
37231;SDS011;23125;48.156;15.954;2023-02-28T01:18:50;12.43;;;6.20;;
37231;SDS011;23125;48.156;15.954;2023-02-28T01:21:16;11.30;;;6.90;;
37231;SDS011;23125;48.156;15.954;2023-02-28T01:23:44;13.75;;;6.75;;
37231;SDS011;23125;48.156;15.954;2023-02-28T01:26:12;11.43;;;6.13;;
37231;SDS011;23125;48.156;15.954;2023-02-28T01:28:48;12.70;;;6.60;;
37231;SDS011;23125;48.156;15.954;2023-02-28T01:31:16;11.88;;;6.68;;
37231;SDS011;23125;48.156;15.954;2023-02-28T01:33:43;7.80;;;6.13;;
37231;SDS011;23125;48.156;15.954;2023-02-28T01:36:15;12.88;;;6.65;;
37231;SDS011;23125;48.156;15.954;2023-02-28T01:38:44;9.68;;;5.97;;
37231;SDS011;23125;48.156;15.954;2023-02-28T01:41:15;10.43;;;6.32;;
37231;SDS011;23125;48.156;15.954;2023-02-28T01:46:09;14.05;;;6.45;;
37231;SDS011;23125;48.156;15.954;2023-02-28T01:48:37;10.68;;;6.93;;
37231;SDS011;23125;48.156;15.954;2023-02-28T01:51:08;10.57;;;6.68;;
37231;SDS011;23125;48.156;15.954;2023-02-28T01:53:47;10.48;;;6.43;;
37231;SDS011;23125;48.156;15.954;2023-02-28T01:56:19;13.02;;;6.38;;
37231;SDS011;23125;48.156;15.954;2023-02-28T01:58:49;11.27;;;6.25;;
37231;SDS011;23125;48.156;15.954;2023-02-28T02:01:17;8.32;;;5.80;;
37231;SDS011;23125;48.156;15.954;2023-02-28T02:03:49;11.77;;;6.35;;
37231;SDS011;23125;48.156;15.954;2023-02-28T02:06:23;10.25;;;5.60;;
37231;SDS011;23125;48.156;15.954;2023-02-28T02:09:09;11.38;;;7.00;;
37231;SDS011;23125;48.156;15.954;2023-02-28T02:11:36;11.98;;;6.60;;
37231;SDS011;23125;48.156;15.954;2023-02-28T02:22:37;11.57;;;6.63;;
37231;SDS011;23125;48.156;15.954;2023-02-28T02:27:41;10.82;;;6.00;;
37231;SDS011;23125;48.156;15.954;2023-02-28T02:38:32;11.43;;;5.85;;
37231;SDS011;23125;48.156;15.954;2023-02-28T02:41:08;10.00;;;6.10;;
37231;SDS011;23125;48.156;15.954;2023-02-28T02:43:56;10.85;;;5.93;;
37231;SDS011;23125;48.156;15.954;2023-02-28T02:46:37;10.77;;;6.57;;
37231;SDS011;23125;48.156;15.954;2023-02-28T02:49:09;10.00;;;5.78;;
37231;SDS011;23125;48.156;15.954;2023-02-28T02:51:41;13.02;;;6.78;;
37231;SDS011;23125;48.156;15.954;2023-02-28T02:54:08;8.23;;;6.25;;
37231;SDS011;23125;48.156;15.954;2023-02-28T02:56:54;12.70;;;6.25;;
37231;SDS011;23125;48.156;15.954;2023-02-28T02:59:23;10.65;;;5.90;;
37231;SDS011;23125;48.156;15.954;2023-02-28T03:01:51;11.10;;;6.05;;
37231;SDS011;23125;48.156;15.954;2023-02-28T03:04:20;12.60;;;6.72;;
37231;SDS011;23125;48.156;15.954;2023-02-28T03:06:50;12.05;;;6.22;;
37231;SDS011;23125;48.156;15.954;2023-02-28T03:09:20;9.55;;;6.32;;
37231;SDS011;23125;48.156;15.954;2023-02-28T03:11:50;10.77;;;6.15;;
37231;SDS011;23125;48.156;15.954;2023-02-28T03:27:29;11.07;;;6.15;;
37231;SDS011;23125;48.156;15.954;2023-02-28T03:30:05;13.85;;;7.18;;
37231;SDS011;23125;48.156;15.954;2023-02-28T03:35:22;12.95;;;6.85;;
37231;SDS011;23125;48.156;15.954;2023-02-28T03:37:55;12.18;;;7.03;;
37231;SDS011;23125;48.156;15.954;2023-02-28T03:40:27;10.52;;;5.40;;
37231;SDS011;23125;48.156;15.954;2023-02-28T03:42:59;10.32;;;5.90;;
37231;SDS011;23125;48.156;15.954;2023-02-28T03:45:30;8.98;;;5.97;;
37231;SDS011;23125;48.156;15.954;2023-02-28T03:50:52;8.90;;;6.10;;
37231;SDS011;23125;48.156;15.954;2023-02-28T03:53:25;12.85;;;6.13;;
37231;SDS011;23125;48.156;15.954;2023-02-28T03:56:00;14.48;;;7.65;;
37231;SDS011;23125;48.156;15.954;2023-02-28T03:58:30;10.57;;;5.82;;
37231;SDS011;23125;48.156;15.954;2023-02-28T04:02:02;10.05;;;5.85;;
37231;SDS011;23125;48.156;15.954;2023-02-28T04:04:11;10.32;;;6.25;;
37231;SDS011;23125;48.156;15.954;2023-02-28T04:06:38;10.80;;;6.15;;
37231;SDS011;23125;48.156;15.954;2023-02-28T04:09:05;10.23;;;5.45;;
37231;SDS011;23125;48.156;15.954;2023-02-28T04:11:44;8.57;;;5.18;;
37231;SDS011;23125;48.156;15.954;2023-02-28T04:14:16;11.18;;;5.53;;
37231;SDS011;23125;48.156;15.954;2023-02-28T04:16:43;10.82;;;5.97;;
37231;SDS011;23125;48.156;15.954;2023-02-28T04:19:10;11.23;;;5.57;;
37231;SDS011;23125;48.156;15.954;2023-02-28T04:21:38;11.25;;;5.90;;
37231;SDS011;23125;48.156;15.954;2023-02-28T04:24:10;8.82;;;5.88;;
37231;SDS011;23125;48.156;15.954;2023-02-28T04:26:42;12.02;;;5.72;;
37231;SDS011;23125;48.156;15.954;2023-02-28T04:29:10;9.30;;;5.60;;
37231;SDS011;23125;48.156;15.954;2023-02-28T04:31:37;12.00;;;5.68;;
37231;SDS011;23125;48.156;15.954;2023-02-28T04:34:03;10.43;;;5.78;;
37231;SDS011;23125;48.156;15.954;2023-02-28T04:36:30;10.57;;;6.00;;
37231;SDS011;23125;48.156;15.954;2023-02-28T04:38:56;10.75;;;6.22;;
37231;SDS011;23125;48.156;15.954;2023-02-28T04:41:22;10.85;;;5.35;;
37231;SDS011;23125;48.156;15.954;2023-02-28T04:43:50;9.50;;;5.72;;
37231;SDS011;23125;48.156;15.954;2023-02-28T04:46:17;11.70;;;5.63;;
37231;SDS011;23125;48.156;15.954;2023-02-28T04:48:43;10.70;;;6.05;;
37231;SDS011;23125;48.156;15.954;2023-02-28T04:51:10;9.52;;;5.25;;
37231;SDS011;23125;48.156;15.954;2023-02-28T04:53:39;9.17;;;5.33;;
37231;SDS011;23125;48.156;15.954;2023-02-28T04:56:06;9.98;;;5.55;;
37231;SDS011;23125;48.156;15.954;2023-02-28T04:58:33;9.80;;;5.50;;
37231;SDS011;23125;48.156;15.954;2023-02-28T05:01:33;10.27;;;5.25;;
37231;SDS011;23125;48.156;15.954;2023-02-28T05:03:54;7.75;;;4.90;;
37231;SDS011;23125;48.156;15.954;2023-02-28T05:06:22;10.05;;;5.68;;
37231;SDS011;23125;48.156;15.954;2023-02-28T05:08:50;10.77;;;6.57;;
37231;SDS011;23125;48.156;15.954;2023-02-28T05:11:18;11.10;;;5.80;;
37231;SDS011;23125;48.156;15.954;2023-02-28T05:13:48;13.52;;;7.10;;
37231;SDS011;23125;48.156;15.954;2023-02-28T05:16:15;11.55;;;6.70;;
37231;SDS011;23125;48.156;15.954;2023-02-28T05:18:42;13.15;;;6.60;;
37231;SDS011;23125;48.156;15.954;2023-02-28T05:23:52;10.98;;;6.88;;
37231;SDS011;23125;48.156;15.954;2023-02-28T05:26:19;10.02;;;6.68;;
37231;SDS011;23125;48.156;15.954;2023-02-28T05:28:45;13.98;;;6.65;;
37231;SDS011;23125;48.156;15.954;2023-02-28T05:31:11;13.40;;;7.13;;
37231;SDS011;23125;48.156;15.954;2023-02-28T05:33:38;11.98;;;6.85;;
37231;SDS011;23125;48.156;15.954;2023-02-28T05:36:05;10.82;;;5.97;;
37231;SDS011;23125;48.156;15.954;2023-02-28T05:38:31;15.65;;;7.22;;
37231;SDS011;23125;48.156;15.954;2023-02-28T05:40:57;14.18;;;6.55;;
37231;SDS011;23125;48.156;15.954;2023-02-28T05:43:23;11.15;;;6.82;;
37231;SDS011;23125;48.156;15.954;2023-02-28T05:45:49;12.70;;;6.65;;
37231;SDS011;23125;48.156;15.954;2023-02-28T05:48:15;11.77;;;5.78;;
37231;SDS011;23125;48.156;15.954;2023-02-28T05:50:42;13.90;;;6.43;;
37231;SDS011;23125;48.156;15.954;2023-02-28T05:53:10;14.82;;;6.20;;
37231;SDS011;23125;48.156;15.954;2023-02-28T05:55:35;11.35;;;6.00;;
37231;SDS011;23125;48.156;15.954;2023-02-28T05:58:02;11.68;;;6.57;;
37231;SDS011;23125;48.156;15.954;2023-02-28T06:00:29;13.18;;;6.55;;
37231;SDS011;23125;48.156;15.954;2023-02-28T06:02:55;12.73;;;7.28;;
37231;SDS011;23125;48.156;15.954;2023-02-28T06:05:26;10.65;;;5.60;;
37231;SDS011;23125;48.156;15.954;2023-02-28T06:07:53;17.98;;;8.57;;
37231;SDS011;23125;48.156;15.954;2023-02-28T06:10:19;29.27;;;11.05;;
37231;SDS011;23125;48.156;15.954;2023-02-28T06:12:45;16.38;;;6.88;;
37231;SDS011;23125;48.156;15.954;2023-02-28T06:15:13;16.30;;;9.00;;
37231;SDS011;23125;48.156;15.954;2023-02-28T06:17:40;12.18;;;6.57;;
37231;SDS011;23125;48.156;15.954;2023-02-28T06:20:07;12.50;;;7.03;;
37231;SDS011;23125;48.156;15.954;2023-02-28T06:22:35;9.00;;;4.57;;
37231;SDS011;23125;48.156;15.954;2023-02-28T06:25:02;15.57;;;8.32;;
37231;SDS011;23125;48.156;15.954;2023-02-28T06:27:30;10.57;;;5.72;;
37231;SDS011;23125;48.156;15.954;2023-02-28T06:29:56;12.02;;;7.43;;
37231;SDS011;23125;48.156;15.954;2023-02-28T06:32:22;9.10;;;6.30;;
37231;SDS011;23125;48.156;15.954;2023-02-28T06:34:48;13.18;;;6.88;;
37231;SDS011;23125;48.156;15.954;2023-02-28T06:37:15;14.30;;;7.63;;
37231;SDS011;23125;48.156;15.954;2023-02-28T06:39:42;12.60;;;7.38;;
37231;SDS011;23125;48.156;15.954;2023-02-28T06:42:08;15.98;;;6.70;;
37231;SDS011;23125;48.156;15.954;2023-02-28T06:44:34;10.90;;;4.95;;
37231;SDS011;23125;48.156;15.954;2023-02-28T06:47:04;13.02;;;6.78;;
37231;SDS011;23125;48.156;15.954;2023-02-28T06:49:31;15.07;;;7.65;;
37231;SDS011;23125;48.156;15.954;2023-02-28T06:51:58;9.77;;;5.03;;
37231;SDS011;23125;48.156;15.954;2023-02-28T06:54:24;8.98;;;5.07;;
37231;SDS011;23125;48.156;15.954;2023-02-28T06:56:50;7.13;;;2.70;;
37231;SDS011;23125;48.156;15.954;2023-02-28T06:59:17;13.57;;;7.32;;
37231;SDS011;23125;48.156;15.954;2023-02-28T07:01:42;12.25;;;7.55;;
37231;SDS011;23125;48.156;15.954;2023-02-28T07:04:08;11.45;;;6.45;;
37231;SDS011;23125;48.156;15.954;2023-02-28T07:06:34;12.50;;;7.63;;
37231;SDS011;23125;48.156;15.954;2023-02-28T07:09:00;13.65;;;8.05;;
37231;SDS011;23125;48.156;15.954;2023-02-28T07:11:26;10.73;;;6.03;;
37231;SDS011;23125;48.156;15.954;2023-02-28T07:13:53;12.77;;;7.40;;
37231;SDS011;23125;48.156;15.954;2023-02-28T07:16:20;12.45;;;7.78;;
37231;SDS011;23125;48.156;15.954;2023-02-28T07:18:47;13.13;;;7.75;;
37231;SDS011;23125;48.156;15.954;2023-02-28T07:21:14;12.75;;;6.65;;
37231;SDS011;23125;48.156;15.954;2023-02-28T07:23:40;16.45;;;9.85;;
37231;SDS011;23125;48.156;15.954;2023-02-28T07:26:07;11.18;;;6.70;;
37231;SDS011;23125;48.156;15.954;2023-02-28T07:28:40;15.73;;;7.72;;
37231;SDS011;23125;48.156;15.954;2023-02-28T07:31:10;13.98;;;7.45;;
37231;SDS011;23125;48.156;15.954;2023-02-28T07:33:39;15.63;;;7.40;;
37231;SDS011;23125;48.156;15.954;2023-02-28T07:36:07;12.45;;;7.45;;
37231;SDS011;23125;48.156;15.954;2023-02-28T07:41:13;12.90;;;6.43;;
37231;SDS011;23125;48.156;15.954;2023-02-28T07:43:43;11.77;;;6.75;;
37231;SDS011;23125;48.156;15.954;2023-02-28T07:46:10;11.38;;;7.47;;
37231;SDS011;23125;48.156;15.954;2023-02-28T07:48:40;12.50;;;7.28;;
37231;SDS011;23125;48.156;15.954;2023-02-28T07:51:07;10.73;;;7.15;;
37231;SDS011;23125;48.156;15.954;2023-02-28T07:53:33;12.32;;;7.38;;
37231;SDS011;23125;48.156;15.954;2023-02-28T07:55:59;11.88;;;7.32;;
37231;SDS011;23125;48.156;15.954;2023-02-28T07:58:27;10.93;;;5.90;;
37231;SDS011;23125;48.156;15.954;2023-02-28T08:00:54;15.38;;;8.25;;
37231;SDS011;23125;48.156;15.954;2023-02-28T08:03:21;13.52;;;8.40;;
37231;SDS011;23125;48.156;15.954;2023-02-28T08:05:48;11.52;;;7.93;;
37231;SDS011;23125;48.156;15.954;2023-02-28T08:08:15;14.55;;;7.88;;
37231;SDS011;23125;48.156;15.954;2023-02-28T08:10:41;16.45;;;8.63;;
37231;SDS011;23125;48.156;15.954;2023-02-28T08:13:08;11.38;;;6.80;;
37231;SDS011;23125;48.156;15.954;2023-02-28T08:15:34;13.05;;;8.43;;
37231;SDS011;23125;48.156;15.954;2023-02-28T08:18:01;13.38;;;7.95;;
37231;SDS011;23125;48.156;15.954;2023-02-28T08:20:27;11.95;;;7.82;;
37231;SDS011;23125;48.156;15.954;2023-02-28T08:22:53;12.98;;;8.40;;
37231;SDS011;23125;48.156;15.954;2023-02-28T08:25:19;12.45;;;7.55;;
37231;SDS011;23125;48.156;15.954;2023-02-28T08:27:46;12.15;;;8.38;;
37231;SDS011;23125;48.156;15.954;2023-02-28T08:30:12;13.15;;;8.32;;
37231;SDS011;23125;48.156;15.954;2023-02-28T08:32:39;13.93;;;7.72;;
37231;SDS011;23125;48.156;15.954;2023-02-28T08:35:06;13.95;;;8.27;;
37231;SDS011;23125;48.156;15.954;2023-02-28T08:37:34;12.27;;;7.97;;
37231;SDS011;23125;48.156;15.954;2023-02-28T08:40:00;11.45;;;7.30;;
37231;SDS011;23125;48.156;15.954;2023-02-28T08:42:26;12.73;;;7.75;;
37231;SDS011;23125;48.156;15.954;2023-02-28T08:44:52;12.38;;;8.05;;
37231;SDS011;23125;48.156;15.954;2023-02-28T08:47:18;15.50;;;8.68;;
37231;SDS011;23125;48.156;15.954;2023-02-28T08:49:44;12.02;;;8.63;;
37231;SDS011;23125;48.156;15.954;2023-02-28T08:52:10;12.57;;;7.75;;
37231;SDS011;23125;48.156;15.954;2023-02-28T08:54:36;12.50;;;8.00;;
37231;SDS011;23125;48.156;15.954;2023-02-28T08:57:02;15.50;;;8.43;;
37231;SDS011;23125;48.156;15.954;2023-02-28T08:59:29;12.73;;;7.65;;
37231;SDS011;23125;48.156;15.954;2023-02-28T09:01:55;11.00;;;7.60;;
37231;SDS011;23125;48.156;15.954;2023-02-28T09:04:20;13.30;;;8.00;;
37231;SDS011;23125;48.156;15.954;2023-02-28T09:06:47;13.40;;;9.45;;
37231;SDS011;23125;48.156;15.954;2023-02-28T09:09:14;11.90;;;8.80;;
37231;SDS011;23125;48.156;15.954;2023-02-28T09:11:40;11.20;;;7.90;;
37231;SDS011;23125;48.156;15.954;2023-02-28T09:14:06;13.30;;;8.52;;
37231;SDS011;23125;48.156;15.954;2023-02-28T09:16:32;15.55;;;9.57;;
37231;SDS011;23125;48.156;15.954;2023-02-28T09:19:00;12.32;;;8.90;;
37231;SDS011;23125;48.156;15.954;2023-02-28T09:21:26;12.15;;;8.35;;
37231;SDS011;23125;48.156;15.954;2023-02-28T09:23:53;13.68;;;9.32;;
37231;SDS011;23125;48.156;15.954;2023-02-28T09:26:23;11.25;;;7.38;;
37231;SDS011;23125;48.156;15.954;2023-02-28T09:28:52;14.70;;;9.45;;
37231;SDS011;23125;48.156;15.954;2023-02-28T09:31:20;13.68;;;8.82;;
37231;SDS011;23125;48.156;15.954;2023-02-28T09:33:48;14.30;;;9.15;;
37231;SDS011;23125;48.156;15.954;2023-02-28T09:36:16;21.08;;;11.02;;
37231;SDS011;23125;48.156;15.954;2023-02-28T09:38:42;12.85;;;9.13;;
37231;SDS011;23125;48.156;15.954;2023-02-28T09:41:18;11.00;;;7.10;;
37231;SDS011;23125;48.156;15.954;2023-02-28T09:43:56;15.38;;;8.98;;
37231;SDS011;23125;48.156;15.954;2023-02-28T09:46:32;17.67;;;10.13;;
37231;SDS011;23125;48.156;15.954;2023-02-28T09:49:07;15.20;;;9.52;;
37231;SDS011;23125;48.156;15.954;2023-02-28T09:54:26;15.23;;;9.15;;
37231;SDS011;23125;48.156;15.954;2023-02-28T10:05:44;14.65;;;9.43;;
37231;SDS011;23125;48.156;15.954;2023-02-28T10:08:21;13.52;;;9.55;;
37231;SDS011;23125;48.156;15.954;2023-02-28T10:10:55;14.38;;;9.77;;
37231;SDS011;23125;48.156;15.954;2023-02-28T10:15:58;13.73;;;8.82;;
37231;SDS011;23125;48.156;15.954;2023-02-28T10:18:34;16.70;;;9.75;;
37231;SDS011;23125;48.156;15.954;2023-02-28T10:21:31;12.88;;;9.05;;
37231;SDS011;23125;48.156;15.954;2023-02-28T10:24:19;9.57;;;6.78;;
37231;SDS011;23125;48.156;15.954;2023-02-28T10:26:56;14.32;;;9.68;;
37231;SDS011;23125;48.156;15.954;2023-02-28T10:29:26;17.98;;;10.88;;
37231;SDS011;23125;48.156;15.954;2023-02-28T10:31:55;13.85;;;8.45;;
37231;SDS011;23125;48.156;15.954;2023-02-28T10:34:21;14.10;;;9.43;;
37231;SDS011;23125;48.156;15.954;2023-02-28T10:36:46;16.65;;;10.52;;
37231;SDS011;23125;48.156;15.954;2023-02-28T10:39:37;13.65;;;10.23;;
37231;SDS011;23125;48.156;15.954;2023-02-28T10:42:27;15.85;;;8.32;;
37231;SDS011;23125;48.156;15.954;2023-02-28T10:47:33;16.45;;;10.13;;
37231;SDS011;23125;48.156;15.954;2023-02-28T10:50:01;14.63;;;9.13;;
37231;SDS011;23125;48.156;15.954;2023-02-28T10:52:37;13.18;;;9.02;;
37231;SDS011;23125;48.156;15.954;2023-02-28T10:55:15;13.52;;;10.18;;
37231;SDS011;23125;48.156;15.954;2023-02-28T10:57:50;13.70;;;9.73;;
37231;SDS011;23125;48.156;15.954;2023-02-28T11:00:21;13.30;;;9.10;;
37231;SDS011;23125;48.156;15.954;2023-02-28T11:02:51;12.65;;;7.60;;
37231;SDS011;23125;48.156;15.954;2023-02-28T11:05:27;9.90;;;6.63;;
37231;SDS011;23125;48.156;15.954;2023-02-28T11:07:54;12.23;;;7.53;;
37231;SDS011;23125;48.156;15.954;2023-02-28T11:10:24;12.40;;;8.20;;
37231;SDS011;23125;48.156;15.954;2023-02-28T11:12:56;14.85;;;8.60;;
37231;SDS011;23125;48.156;15.954;2023-02-28T11:15:30;10.23;;;6.70;;
37231;SDS011;23125;48.156;15.954;2023-02-28T11:20:49;11.10;;;7.18;;
37231;SDS011;23125;48.156;15.954;2023-02-28T11:23:16;12.05;;;7.50;;
37231;SDS011;23125;48.156;15.954;2023-02-28T11:25:52;12.85;;;7.60;;
37231;SDS011;23125;48.156;15.954;2023-02-28T11:28:23;13.52;;;8.30;;
37231;SDS011;23125;48.156;15.954;2023-02-28T11:31:04;12.43;;;8.07;;
37231;SDS011;23125;48.156;15.954;2023-02-28T11:36:23;12.02;;;6.80;;
37231;SDS011;23125;48.156;15.954;2023-02-28T11:38:55;10.68;;;6.55;;
37231;SDS011;23125;48.156;15.954;2023-02-28T11:44:11;9.20;;;6.03;;
37231;SDS011;23125;48.156;15.954;2023-02-28T11:47:17;9.48;;;5.28;;
37231;SDS011;23125;48.156;15.954;2023-02-28T11:50:20;12.57;;;7.55;;
37231;SDS011;23125;48.156;15.954;2023-02-28T11:52:49;11.67;;;6.90;;
37231;SDS011;23125;48.156;15.954;2023-02-28T11:56:20;11.05;;;7.00;;
37231;SDS011;23125;48.156;15.954;2023-02-28T12:09:47;9.55;;;5.43;;
37231;SDS011;23125;48.156;15.954;2023-02-28T12:12:43;9.23;;;5.88;;
37231;SDS011;23125;48.156;15.954;2023-02-28T12:15:45;11.93;;;7.45;;
37231;SDS011;23125;48.156;15.954;2023-02-28T12:21:10;9.60;;;5.75;;
37231;SDS011;23125;48.156;15.954;2023-02-28T12:26:32;11.10;;;5.95;;
37231;SDS011;23125;48.156;15.954;2023-02-28T12:32:27;9.45;;;5.88;;
37231;SDS011;23125;48.156;15.954;2023-02-28T12:34:35;11.13;;;7.22;;
37231;SDS011;23125;48.156;15.954;2023-02-28T12:37:06;9.38;;;6.03;;
37231;SDS011;23125;48.156;15.954;2023-02-28T12:39:36;9.82;;;6.07;;
37231;SDS011;23125;48.156;15.954;2023-02-28T12:42:13;7.13;;;4.18;;
37231;SDS011;23125;48.156;15.954;2023-02-28T12:44:51;12.40;;;7.43;;
37231;SDS011;23125;48.156;15.954;2023-02-28T12:47:21;8.48;;;5.95;;
37231;SDS011;23125;48.156;15.954;2023-02-28T12:49:54;11.43;;;6.80;;
37231;SDS011;23125;48.156;15.954;2023-02-28T12:52:36;12.55;;;6.35;;
37231;SDS011;23125;48.156;15.954;2023-02-28T12:57:48;11.45;;;6.85;;
37231;SDS011;23125;48.156;15.954;2023-02-28T13:00:25;10.20;;;5.65;;
37231;SDS011;23125;48.156;15.954;2023-02-28T13:11:34;5.25;;;2.78;;
37231;SDS011;23125;48.156;15.954;2023-02-28T13:14:16;11.75;;;7.20;;
37231;SDS011;23125;48.156;15.954;2023-02-28T13:16:48;10.63;;;5.90;;
37231;SDS011;23125;48.156;15.954;2023-02-28T13:19:21;10.95;;;6.28;;
37231;SDS011;23125;48.156;15.954;2023-02-28T13:21:49;10.55;;;6.82;;
37231;SDS011;23125;48.156;15.954;2023-02-28T13:29:35;10.18;;;6.82;;
37231;SDS011;23125;48.156;15.954;2023-02-28T13:34:36;10.15;;;6.05;;
37231;SDS011;23125;48.156;15.954;2023-02-28T13:50:29;14.57;;;8.40;;
37231;SDS011;23125;48.156;15.954;2023-02-28T13:53:21;8.38;;;4.40;;
37231;SDS011;23125;48.156;15.954;2023-02-28T13:56:23;7.45;;;4.65;;
37231;SDS011;23125;48.156;15.954;2023-02-28T13:59:01;10.88;;;6.63;;
37231;SDS011;23125;48.156;15.954;2023-02-28T14:02:03;10.18;;;5.10;;
37231;SDS011;23125;48.156;15.954;2023-02-28T14:07:41;12.20;;;6.82;;
37231;SDS011;23125;48.156;15.954;2023-02-28T14:10:32;11.45;;;7.63;;
37231;SDS011;23125;48.156;15.954;2023-02-28T14:16:09;12.57;;;7.55;;
37231;SDS011;23125;48.156;15.954;2023-02-28T14:18:42;9.00;;;5.45;;
37231;SDS011;23125;48.156;15.954;2023-02-28T14:26:43;11.73;;;5.53;;
37231;SDS011;23125;48.156;15.954;2023-02-28T14:32:03;12.02;;;6.35;;
37231;SDS011;23125;48.156;15.954;2023-02-28T14:37:36;12.80;;;6.93;;
37231;SDS011;23125;48.156;15.954;2023-02-28T14:40:11;16.15;;;7.55;;
37231;SDS011;23125;48.156;15.954;2023-02-28T14:42:59;10.23;;;6.88;;
37231;SDS011;23125;48.156;15.954;2023-02-28T14:45:27;8.40;;;5.82;;
37231;SDS011;23125;48.156;15.954;2023-02-28T14:47:55;11.50;;;6.80;;
37231;SDS011;23125;48.156;15.954;2023-02-28T14:50:33;11.00;;;7.00;;
37231;SDS011;23125;48.156;15.954;2023-02-28T14:53:01;11.70;;;6.95;;
37231;SDS011;23125;48.156;15.954;2023-02-28T14:55:29;11.50;;;6.72;;
37231;SDS011;23125;48.156;15.954;2023-02-28T14:58:00;9.43;;;6.20;;
37231;SDS011;23125;48.156;15.954;2023-02-28T15:00:46;12.95;;;6.65;;
37231;SDS011;23125;48.156;15.954;2023-02-28T15:03:23;10.27;;;6.47;;
37231;SDS011;23125;48.156;15.954;2023-02-28T15:08:23;8.65;;;5.88;;
37231;SDS011;23125;48.156;15.954;2023-02-28T15:10:53;6.40;;;3.63;;
37231;SDS011;23125;48.156;15.954;2023-02-28T15:13:20;8.85;;;5.47;;
37231;SDS011;23125;48.156;15.954;2023-02-28T15:18:25;9.18;;;5.53;;
37231;SDS011;23125;48.156;15.954;2023-02-28T15:21:16;6.18;;;4.55;;
37231;SDS011;23125;48.156;15.954;2023-02-28T15:23:52;12.60;;;6.70;;
37231;SDS011;23125;48.156;15.954;2023-02-28T15:26:22;9.40;;;5.15;;
37231;SDS011;23125;48.156;15.954;2023-02-28T15:29:00;10.90;;;6.63;;
37231;SDS011;23125;48.156;15.954;2023-02-28T15:31:35;12.15;;;6.95;;
37231;SDS011;23125;48.156;15.954;2023-02-28T15:34:12;7.22;;;5.30;;
37231;SDS011;23125;48.156;15.954;2023-02-28T15:36:46;14.77;;;7.93;;
37231;SDS011;23125;48.156;15.954;2023-02-28T15:39:20;15.15;;;7.60;;
37231;SDS011;23125;48.156;15.954;2023-02-28T15:41:48;12.27;;;7.28;;
37231;SDS011;23125;48.156;15.954;2023-02-28T15:47:05;13.20;;;7.25;;
37231;SDS011;23125;48.156;15.954;2023-02-28T15:49:53;9.20;;;5.43;;
37231;SDS011;23125;48.156;15.954;2023-02-28T15:52:28;10.80;;;6.43;;
37231;SDS011;23125;48.156;15.954;2023-02-28T15:55:26;10.50;;;6.97;;
37231;SDS011;23125;48.156;15.954;2023-02-28T15:57:54;12.38;;;6.72;;
37231;SDS011;23125;48.156;15.954;2023-02-28T16:00:26;8.95;;;6.10;;
37231;SDS011;23125;48.156;15.954;2023-02-28T16:02:53;13.00;;;7.63;;
37231;SDS011;23125;48.156;15.954;2023-02-28T16:07:56;13.30;;;7.88;;
37231;SDS011;23125;48.156;15.954;2023-02-28T16:10:24;10.85;;;7.30;;
37231;SDS011;23125;48.156;15.954;2023-02-28T16:12:53;11.70;;;7.90;;
37231;SDS011;23125;48.156;15.954;2023-02-28T16:15:21;10.85;;;7.07;;
37231;SDS011;23125;48.156;15.954;2023-02-28T16:17:51;12.02;;;7.00;;
37231;SDS011;23125;48.156;15.954;2023-02-28T16:20:25;8.30;;;5.60;;
37231;SDS011;23125;48.156;15.954;2023-02-28T16:22:53;12.00;;;6.85;;
37231;SDS011;23125;48.156;15.954;2023-02-28T16:25:21;10.80;;;7.07;;
37231;SDS011;23125;48.156;15.954;2023-02-28T16:27:52;12.75;;;7.78;;
37231;SDS011;23125;48.156;15.954;2023-02-28T16:30:24;9.80;;;7.20;;
37231;SDS011;23125;48.156;15.954;2023-02-28T16:32:51;12.60;;;7.97;;
37231;SDS011;23125;48.156;15.954;2023-02-28T16:35:20;11.90;;;7.28;;
37231;SDS011;23125;48.156;15.954;2023-02-28T16:37:47;10.98;;;7.07;;
37231;SDS011;23125;48.156;15.954;2023-02-28T16:40:13;12.20;;;7.75;;
37231;SDS011;23125;48.156;15.954;2023-02-28T16:42:46;13.80;;;7.97;;
37231;SDS011;23125;48.156;15.954;2023-02-28T16:45:14;11.70;;;7.53;;
37231;SDS011;23125;48.156;15.954;2023-02-28T16:47:47;11.10;;;7.82;;
37231;SDS011;23125;48.156;15.954;2023-02-28T16:50:16;12.63;;;8.10;;
37231;SDS011;23125;48.156;15.954;2023-02-28T16:52:47;13.02;;;8.13;;
37231;SDS011;23125;48.156;15.954;2023-02-28T16:55:14;11.85;;;7.90;;
37231;SDS011;23125;48.156;15.954;2023-02-28T16:57:41;10.30;;;7.75;;
37231;SDS011;23125;48.156;15.954;2023-02-28T17:00:10;11.45;;;7.15;;
37231;SDS011;23125;48.156;15.954;2023-02-28T17:02:38;11.57;;;7.78;;
37231;SDS011;23125;48.156;15.954;2023-02-28T17:05:05;12.20;;;7.65;;
37231;SDS011;23125;48.156;15.954;2023-02-28T17:07:31;10.85;;;7.18;;
37231;SDS011;23125;48.156;15.954;2023-02-28T17:09:57;11.98;;;7.40;;
37231;SDS011;23125;48.156;15.954;2023-02-28T17:12:24;10.05;;;7.32;;
37231;SDS011;23125;48.156;15.954;2023-02-28T17:14:50;11.85;;;7.18;;
37231;SDS011;23125;48.156;15.954;2023-02-28T17:17:17;10.77;;;7.28;;
37231;SDS011;23125;48.156;15.954;2023-02-28T17:19:46;12.38;;;8.15;;